Terminal Aerodrome Forecast
Issued by NWS

Home | Current Version | Previous Version | Text Only | Print | Product List | Glossary On
Versions: 1 2 3 4 5 6 7 8 9 10 11 12 13 14 15 16 17
000
FTUS46 KLOX 312200 AAA
TAFPRB
TAF AMD
KPRB 312220Z 3122/0118 23013KT P6SM SCT040 OVC045
     FM010100 21015G20KT P6SM VCSH BKN025 OVC060
     FM010400 21008KT 5SM -RA BR BKN015 OVC035
     FM010700 27008KT P6SM -SHRA BKN015 OVC040
     FM011100 VRB03KT P6SM VCSH BKN015 OVC040=

USA.gov is the U.S. government's official web portal to all federal, state and local government web resources and services.